Overview Statistics Trail Chart Weather Telemetry Raw packets
 

This is the latest recevied weather packets stored in our database for station/object C31FR-13. If no packets are shown the sender has not sent any weather packets the latest 10 day(s).

<< 13 14 15 16 17 >>
Time Temp. Humidity Pressure Rain* Wind** Luminosity Snow
1788206162 24.44° C 45% 1022.3 hPa - - - -
1788205262 24.44° C 44% 1022.1 hPa - - - -
1788204362 24.44° C 44% 1021.9 hPa - - - -
1788204063 24.44° C 43% 1021.8 hPa - - - -
1788202563 25° C 42% 1021.5 hPa - - - -
1788201963 25° C 42% 1021.3 hPa - - - -
1788201362 25° C 42% 1021.2 hPa - - - -
1788200463 25.56° C 41% 1021 hPa - - - -
1788200163 25.56° C 41% 1021 hPa - - - -
1788199574 26.11° C 40% 1020.8 hPa - - - -
1788198663 26.11° C 40% 1020.7 hPa - - - -
1788198363 26.11° C 40% 1020.6 hPa - - - -
1788195962 28.33° C 35% 1020.3 hPa - - - -
1788195063 28.33° C 34% 1020.2 hPa - - - -
1788193862 28.89° C 30% 1020.2 hPa - - - -
1788193562 28.89° C 31% 1020.2 hPa - - - -
1788193262 28.89° C 31% 1020.2 hPa - - - -
1788192662 28.89° C 30% 1020.3 hPa - - - -
1788189962 28.33° C 31% 1020.5 hPa - - - -
1788189362 28.33° C 31% 1020.4 hPa - - - -
1788187862 27.78° C 31% 1020.4 hPa - - - -
1788186662 27.78° C 32% 1020.6 hPa - - - -
1788184562 27.22° C 34% 1020.8 hPa - - - -
1788183963 27.22° C 35% 1020.8 hPa - - - -
1788182762 26.67° C 36% 1021 hPa - - - -

* Rain since midnight (hover to see other rain measurements)
** Current wind speed in m/s (hover to see current wind gust speed)